Duffau, Texas
Current Conditions -  °F | °C
As of 12:55 AM on Thursday 27 Nov 2014 (Local Time) from KSEP Reporting Station
Clear Clear  
Wind Chill: 42°   Ceiling: Unl
Heat Index: 46°   Visibility: 10mi
Dew Point: 34°   Wind: 6mph
Humidity: 65%   Direction: 20°NNE
Pressure: 30.43"   Gusts: NA
Location:  31.981°N, 98.033°W
Report Text: KSEP 270655Z AUTO 02005KT 10SM CLR 08/01 A3043 RMK AO2 T00750012
Loading
Personal Weather Stations






























Interactive Weather Map New forecast layout! Learn more

10-Day Weather Forecast

Advertisements
Track Severe Weather on mobile